Time;durP1;ratioP1;P1;durP2;ratioP2;P2;SDS_P1;SDS_P2;PMS_P1;PMS_P2;Temp;Humidity;BMP_temperature;BMP_pressure;BME280_temperature;BME280_humidity;BME280_pressure;Samples;Min_cycle;Max_cycle;Signal;HPM_P1;HPM_P2
2023/03/27 00:00:49;;;;;;;5.18;1.90;;;;;;;3.11;97.23;101418.63;5026892;28;20034;-65
2023/03/27 00:03:15;;;;;;;3.97;1.80;;;;;;;3.09;96.61;101434.25;5035996;28;20375;-65
2023/03/27 00:05:40;;;;;;;3.92;1.63;;;;;;;3.06;97.79;101433.72;5034847;28;20143;-62
2023/03/27 00:08:09;;;;;;;3.88;1.70;;;;;;;2.99;97.83;101438.97;5025999;28;20029;-65
2023/03/27 00:10:36;;;;;;;1.95;1.40;;;;;;;2.92;97.90;101437.06;5027684;28;20041;-65
2023/03/27 00:13:02;;;;;;;4.38;2.00;;;;;;;2.83;97.42;101438.91;5035796;28;20056;-63
2023/03/27 00:15:31;;;;;;;3.65;1.67;;;;;;;2.78;98.50;101450.25;5043487;28;20087;-65
2023/03/27 00:17:57;;;;;;;3.40;1.77;;;;;;;2.69;98.25;101450.41;5027512;28;20038;-64
2023/03/27 00:20:24;;;;;;;4.38;1.60;;;;;;;2.63;99.04;101456.47;5031444;28;22411;-65
2023/03/27 00:22:57;;;;;;;4.88;1.80;;;;;;;2.57;100.00;101464.25;5026560;28;20068;-64
2023/03/27 00:25:23;;;;;;;4.55;1.80;;;;;;;2.50;99.97;101465.09;5034120;28;20039;-65
2023/03/27 00:27:49;;;;;;;5.47;1.90;;;;;;;2.48;100.00;101473.34;5036060;28;20033;-64
2023/03/27 00:30:15;;;;;;;4.50;1.90;;;;;;;2.49;100.00;101475.09;5033385;28;20033;-64
2023/03/27 00:32:41;;;;;;;3.58;1.70;;;;;;;2.53;100.00;101479.16;5026944;28;20025;-64
2023/03/27 00:35:11;;;;;;;4.10;1.73;;;;;;;2.56;100.00;101481.53;5027556;28;20120;-65
2023/03/27 00:37:36;;;;;;;6.03;2.17;;;;;;;2.63;100.00;101481.72;5036265;28;20055;-64
2023/03/27 00:40:14;;;;;;;4.25;2.05;;;;;;;2.69;100.00;101475.69;5042247;28;20029;-65
2023/03/27 00:42:39;;;;;;;4.55;1.65;;;;;;;2.78;100.00;101474.66;5026639;28;20046;-65
2023/03/27 00:45:05;;;;;;;5.70;2.20;;;;;;;2.84;100.00;101487.59;5027080;28;20032;-63
2023/03/27 00:47:34;;;;;;;4.47;1.75;;;;;;;2.88;100.00;101490.81;5027121;28;20045;-61
2023/03/27 00:50:05;;;;;;;3.63;1.60;;;;;;;2.92;100.00;101494.06;5036864;28;20032;-64
2023/03/27 00:52:31;;;;;;;2.92;1.45;;;;;;;2.96;100.00;101493.56;5026572;28;20036;-65
2023/03/27 00:55:00;;;;;;;2.85;1.70;;;;;;;3.02;100.00;101498.31;5028608;28;20083;-63
2023/03/27 00:57:25;;;;;;;;;;;;;;;3.16;100.00;101498.69;5041675;28;20044;-65
2023/03/27 00:59:53;;;;;;;4.10;2.00;;;;;;;3.20;100.00;101508.22;5027787;28;20604;-65
2023/03/27 01:02:19;;;;;;;;;;;;;;;3.28;100.00;101521.78;5026992;28;20057;-65
2023/03/27 01:04:46;;;;;;;3.60;1.80;;;;;;;3.32;100.00;101520.44;5026574;28;20006;-63
2023/03/27 01:07:11;;;;;;;4.53;1.60;;;;;;;3.33;100.00;101522.97;5024296;28;20041;-65
2023/03/27 01:09:37;;;;;;;4.35;1.58;;;;;;;3.38;100.00;101517.91;5026388;28;20021;-64
2023/03/27 01:12:09;;;;;;;4.03;1.70;;;;;;;3.42;100.00;101521.13;5025777;28;20056;-65
2023/03/27 01:15:00;;;;;;;3.00;1.60;;;;;;;3.47;100.00;101520.63;5026990;28;20104;-65
2023/03/27 01:17:36;;;;;;;2.75;1.48;;;;;;;3.39;100.00;101516.88;5027145;28;20357;-65
2023/03/27 01:20:34;;;;;;;4.22;1.48;;;;;;;3.38;100.00;101519.78;5034174;28;20059;-61
2023/03/27 01:23:03;;;;;;;2.63;1.40;;;;;;;3.33;100.00;101511.28;5021729;28;20065;-64
2023/03/27 01:25:43;;;;;;;;;;;;;;;3.37;100.00;101516.22;5032156;28;20021;-63
2023/03/27 01:28:11;;;;;;;3.47;1.60;;;;;;;3.29;100.00;101531.63;5045666;28;19912;-64
2023/03/27 01:30:42;;;;;;;3.58;1.40;;;;;;;3.26;100.00;101534.69;5034075;28;20036;-64
2023/03/27 01:33:26;;;;;;;3.13;1.40;;;;;;;3.20;100.00;101533.50;5028955;28;20037;-65
2023/03/27 01:36:39;;;;;;;3.28;1.42;;;;;;;3.19;100.00;101539.06;5029423;28;20036;-62
2023/03/27 01:39:29;;;;;;;2.28;1.30;;;;;;;3.08;100.00;101549.22;5001465;28;20129;-64
2023/03/27 01:42:27;;;;;;;2.97;1.60;;;;;;;3.03;100.00;101546.16;5009913;28;20041;-64
2023/03/27 01:45:01;;;;;;;1.45;1.35;;;;;;;2.89;100.00;101552.22;5014706;28;20055;-64
2023/03/27 01:47:39;;;;;;;2.67;1.40;;;;;;;2.84;100.00;101554.56;5030524;28;20591;-65
2023/03/27 01:50:36;;;;;;;2.42;1.50;;;;;;;2.82;100.00;101557.41;5035419;28;20033;-64
2023/03/27 01:53:10;;;;;;;2.93;1.63;;;;;;;2.81;100.00;101560.31;5041513;28;20040;-62
2023/03/27 01:55:39;;;;;;;2.85;1.60;;;;;;;2.79;100.00;101557.78;5048537;28;20049;-63
2023/03/27 01:58:17;;;;;;;3.25;1.52;;;;;;;2.77;100.00;101561.63;5040916;28;20033;-66
2023/03/27 02:00:45;;;;;;;;;;;;;;;2.83;100.00;101560.97;5031576;28;20075;-65
2023/03/27 02:03:42;;;;;;;3.33;1.40;;;;;;;2.77;100.00;101562.50;5030601;28;19948;-65
2023/03/27 02:06:15;;;;;;;3.53;1.70;;;;;;;2.72;100.00;101559.41;5033920;28;20124;-63
2023/03/27 02:08:59;;;;;;;2.60;1.63;;;;;;;2.69;100.00;101567.03;5036300;28;20040;-63
2023/03/27 02:11:29;;;;;;;3.50;1.63;;;;;;;2.65;100.00;101568.38;5028246;28;20048;-64
2023/03/27 02:14:02;;;;;;;4.72;1.83;;;;;;;2.60;100.00;101585.13;5029192;28;20033;-64
2023/03/27 02:16:34;;;;;;;3.83;1.80;;;;;;;2.56;100.00;101586.44;5028998;28;20132;-64
2023/03/27 02:19:10;;;;;;;3.20;1.80;;;;;;;2.50;100.00;101595.22;5030422;28;20112;-65
2023/03/27 02:21:36;;;;;;;3.15;1.80;;;;;;;2.43;100.00;101600.41;5045092;28;20033;-62
2023/03/27 02:24:04;;;;;;;3.83;1.80;;;;;;;2.36;100.00;101596.66;5029667;28;20116;-63
2023/03/27 02:26:31;;;;;;;4.15;1.75;;;;;;;2.31;100.00;101599.00;5031690;28;20075;-64
2023/03/27 02:29:26;;;;;;;4.00;1.95;;;;;;;2.31;100.00;101612.53;5049552;28;20108;-64
2023/03/27 02:31:51;;;;;;;4.53;2.03;;;;;;;2.21;100.00;101604.50;5035585;28;20039;-64
2023/03/27 02:34:55;;;;;;;3.43;2.00;;;;;;;2.20;100.00;101610.09;5030646;28;20393;-64
2023/03/27 02:37:37;;;;;;;4.22;2.00;;;;;;;2.13;100.00;101601.75;5029573;28;20387;-65
2023/03/27 02:40:23;;;;;;;3.08;2.00;;;;;;;2.11;100.00;101611.03;5028962;28;20473;-65
2023/03/27 02:42:59;;;;;;;4.50;2.05;;;;;;;2.10;100.00;101618.31;5027232;28;20124;-64
2023/03/27 02:45:41;;;;;;;4.00;2.08;;;;;;;2.07;100.00;101614.03;5027684;28;20350;-65
2023/03/27 02:48:32;;;;;;;4.78;1.90;;;;;;;2.06;100.00;101609.63;5028803;28;20136;-64
2023/03/27 02:51:07;;;;;;;6.35;2.33;;;;;;;2.03;100.00;101620.78;5032407;28;20068;-64
2023/03/27 02:53:39;;;;;;;4.38;1.98;;;;;;;2.06;100.00;101625.88;5041956;28;20486;-64
2023/03/27 02:56:07;;;;;;;4.53;2.03;;;;;;;2.09;100.00;101630.16;5048376;28;20017;-64
2023/03/27 02:58:48;;;;;;;3.58;2.00;;;;;;;2.14;100.00;101637.81;5034764;28;20044;-63
2023/03/27 03:01:17;;;;;;;3.67;2.08;;;;;;;2.14;100.00;101632.41;5028941;28;20033;-64
2023/03/27 03:03:54;;;;;;;4.47;2.10;;;;;;;2.15;100.00;101634.94;5028022;28;20051;-64
2023/03/27 03:06:21;;;;;;;5.75;2.00;;;;;;;2.15;100.00;101634.09;5029129;28;20013;-65
2023/03/27 03:08:47;;;;;;;3.22;2.00;;;;;;;2.14;100.00;101632.41;5028418;28;20037;-63
2023/03/27 03:11:14;;;;;;;3.35;2.10;;;;;;;2.15;100.00;101640.38;5040395;28;20742;-65
2023/03/27 03:13:40;;;;;;;3.53;2.10;;;;;;;2.13;100.00;101646.94;5036685;28;20075;-64
2023/03/27 03:16:06;;;;;;;3.90;2.00;;;;;;;2.07;100.00;101648.41;5029708;28;20052;-65
2023/03/27 03:18:32;;;;;;;4.95;2.13;;;;;;;2.03;100.00;101669.56;5027794;28;20040;-63
2023/03/27 03:20:57;;;;;;;2.88;1.83;;;;;;;1.96;100.00;101662.19;5028477;28;20168;-65
2023/03/27 03:23:22;;;;;;;4.25;2.05;;;;;;;1.93;100.00;101671.50;5028633;28;20035;-64
2023/03/27 03:25:55;;;;;;;3.60;1.98;;;;;;;1.87;100.00;101657.69;5027777;28;20488;-65
2023/03/27 03:28:26;;;;;;;3.28;2.25;;;;;;;1.78;100.00;101670.31;5026407;28;20361;-64
2023/03/27 03:30:52;;;;;;;2.80;1.73;;;;;;;1.75;100.00;101670.63;5027528;28;20033;-64
2023/03/27 03:33:19;;;;;;;4.10;2.20;;;;;;;1.69;100.00;101674.78;5031014;28;20068;-62
2023/03/27 03:35:46;;;;;;;5.80;2.05;;;;;;;1.64;100.00;101679.81;5028287;28;20037;-65
2023/03/27 03:38:11;;;;;;;4.32;2.08;;;;;;;1.62;100.00;101678.25;5028130;28;20029;-65
2023/03/27 03:40:36;;;;;;;4.22;2.22;;;;;;;1.63;100.00;101682.69;5027207;28;20419;-64
2023/03/27 03:43:02;;;;;;;2.90;1.90;;;;;;;1.61;100.00;101690.09;5025707;28;20084;-64
2023/03/27 03:45:27;;;;;;;3.67;1.70;;;;;;;1.60;100.00;101693.81;5028366;28;20522;-63
2023/03/27 03:47:53;;;;;;;2.70;1.80;;;;;;;1.62;100.00;101706.16;5027351;28;20053;-65
2023/03/27 03:50:18;;;;;;;4.88;2.30;;;;;;;1.62;100.00;101702.63;5031082;28;20032;-64
2023/03/27 03:52:44;;;;;;;3.15;1.80;;;;;;;1.65;100.00;101707.75;5033567;28;20033;-65
2023/03/27 03:55:10;;;;;;;2.72;2.08;;;;;;;1.66;100.00;101702.16;5028592;28;20112;-64
2023/03/27 03:57:36;;;;;;;3.28;1.83;;;;;;;1.69;100.00;101701.03;5023340;28;20069;-65
2023/03/27 04:00:10;;;;;;;3.95;2.15;;;;;;;1.75;100.00;101713.94;5031257;28;20506;-62
2023/03/27 04:02:37;;;;;;;4.35;2.10;;;;;;;1.77;100.00;101717.34;5043837;28;20033;-62
2023/03/27 04:05:03;;;;;;;3.50;1.90;;;;;;;1.77;100.00;101717.34;5036014;28;20033;-63
2023/03/27 04:07:30;;;;;;;3.85;1.95;;;;;;;1.79;100.00;101726.19;5030062;28;20376;-65
2023/03/27 04:09:58;;;;;;;3.30;1.90;;;;;;;1.78;100.00;101722.63;5028880;28;20029;-65
2023/03/27 04:12:24;;;;;;;4.63;2.10;;;;;;;1.80;100.00;101725.19;5041585;28;20025;-65
2023/03/27 04:14:49;;;;;;;4.03;2.03;;;;;;;1.82;100.00;101728.56;5045795;28;20071;-65
2023/03/27 04:17:14;;;;;;;4.22;2.00;;;;;;;1.83;100.00;101730.31;5045125;28;20056;-64
2023/03/27 04:19:40;;;;;;;3.28;1.92;;;;;;;1.85;100.00;101735.56;5041272;28;20087;-64
2023/03/27 04:22:06;;;;;;;2.88;2.10;;;;;;;1.83;100.00;101738.44;5029399;28;20037;-65
2023/03/27 04:24:31;;;;;;;3.20;1.95;;;;;;;1.81;100.00;101741.28;5023409;28;20033;-63
2023/03/27 04:26:57;;;;;;;2.90;1.90;;;;;;;1.80;100.00;101739.56;5027320;28;20079;-65
2023/03/27 04:29:23;;;;;;;2.72;1.80;;;;;;;1.80;100.00;101746.84;5026820;28;20052;-64
2023/03/27 04:31:49;;;;;;;3.80;1.90;;;;;;;1.77;100.00;101749.84;5041743;28;20055;-65
2023/03/27 04:34:18;;;;;;;2.80;1.80;;;;;;;1.73;100.00;101764.72;5027081;28;20037;-64
2023/03/27 04:36:44;;;;;;;3.97;1.73;;;;;;;1.71;100.00;101764.00;5032869;28;20041;-65
2023/03/27 04:39:09;;;;;;;2.58;1.70;;;;;;;1.69;100.00;101766.88;5025626;28;20036;-65
2023/03/27 04:41:34;;;;;;;3.72;2.03;;;;;;;1.71;100.00;101772.97;5032763;28;20029;-66
2023/03/27 04:43:59;;;;;;;3.10;1.77;;;;;;;1.75;100.00;101781.66;5028602;28;20156;-64
2023/03/27 04:46:25;;;;;;;2.58;1.90;;;;;;;1.77;100.00;101776.94;5030567;28;20036;-65
2023/03/27 04:48:50;;;;;;;4.22;2.00;;;;;;;1.77;100.00;101783.22;5035005;28;20132;-65
2023/03/27 04:51:15;;;;;;;2.72;1.85;;;;;;;1.80;100.00;101788.31;5028068;28;20029;-65
2023/03/27 04:53:41;;;;;;;3.00;2.10;;;;;;;1.82;100.00;101780.03;5037196;28;20137;-62
2023/03/27 04:56:08;;;;;;;3.08;1.95;;;;;;;1.84;100.00;101788.88;5029446;28;20029;-65
2023/03/27 04:58:33;;;;;;;3.25;2.17;;;;;;;1.87;100.00;101793.13;5030662;28;20061;-65
2023/03/27 05:01:01;;;;;;;2.10;1.80;;;;;;;1.87;100.00;101791.28;5031009;28;20045;-65
2023/03/27 05:03:26;;;;;;;4.28;2.22;;;;;;;1.88;100.00;101795.72;5044299;28;20103;-65
2023/03/27 05:05:52;;;;;;;2.65;1.90;;;;;;;1.88;100.00;101797.56;5035940;28;20060;-65
2023/03/27 05:08:18;;;;;;;2.28;2.05;;;;;;;1.87;100.00;101809.38;5031792;28;20025;-66
2023/03/27 05:10:44;;;;;;;2.97;2.22;;;;;;;1.84;100.00;101807.84;5038127;28;20041;-65
2023/03/27 05:13:10;;;;;;;3.08;2.10;;;;;;;1.82;100.00;101807.13;5049083;28;20037;-65
2023/03/27 05:15:37;;;;;;;2.55;2.10;;;;;;;1.76;100.00;101815.84;5046076;28;20025;-65
2023/03/27 05:18:05;;;;;;;3.07;2.30;;;;;;;1.72;100.00;101818.00;5029468;28;20079;-65
2023/03/27 05:20:31;;;;;;;4.25;2.45;;;;;;;1.67;100.00;101831.13;5031329;28;20036;-65
2023/03/27 05:22:56;;;;;;;3.67;2.10;;;;;;;1.65;100.00;101824.19;5030264;28;20033;-65
2023/03/27 05:25:23;;;;;;;3.45;2.10;;;;;;;1.66;100.00;101831.28;5035920;28;20034;-63
2023/03/27 05:27:50;;;;;;;4.32;2.63;;;;;;;1.69;100.00;101839.13;5050470;28;20024;-66
2023/03/27 05:30:18;;;;;;;4.13;2.28;;;;;;;1.72;100.00;101838.81;5046584;28;20037;-65
2023/03/27 05:32:50;;;;;;;3.33;2.10;;;;;;;1.75;100.00;101839.38;5029022;28;20033;-65
2023/03/27 05:35:17;;;;;;;3.45;2.15;;;;;;;1.80;100.00;101842.50;5027521;28;20025;-65
2023/03/27 05:37:51;;;;;;;4.65;2.55;;;;;;;1.88;100.00;101843.63;5028882;28;20037;-66
2023/03/27 05:40:21;;;;;;;4.47;2.60;;;;;;;1.94;100.00;101846.56;5029581;28;20027;-65
2023/03/27 05:42:47;;;;;;;4.18;2.30;;;;;;;2.05;100.00;101845.53;5028954;28;20037;-65
2023/03/27 05:45:13;;;;;;;3.42;2.30;;;;;;;2.15;100.00;101850.88;5043305;28;20510;-65
2023/03/27 05:47:54;;;;;;;3.30;2.10;;;;;;;2.27;100.00;101860.50;5028719;28;20069;-65
2023/03/27 05:50:24;;;;;;;3.28;2.38;;;;;;;2.35;100.00;101868.75;5031085;28;20393;-65
2023/03/27 05:52:57;;;;;;;4.03;2.20;;;;;;;2.42;100.00;101866.28;5030163;28;20065;-66
2023/03/27 05:55:24;;;;;;;3.22;1.95;;;;;;;2.50;100.00;101874.50;5012894;28;20473;-66
2023/03/27 05:57:49;;;;;;;3.42;1.90;;;;;;;2.66;100.00;101885.53;5030267;28;20087;-65
2023/03/27 06:00:15;;;;;;;2.40;2.00;;;;;;;2.85;100.00;101893.53;5025877;28;20480;-66
2023/03/27 06:02:44;;;;;;;2.95;2.00;;;;;;;2.91;100.00;101900.19;5016884;28;20055;-63
2023/03/27 06:05:15;;;;;;;3.40;1.75;;;;;;;2.83;100.00;101894.66;5045203;28;20189;-64
2023/03/27 06:07:41;;;;;;;2.08;1.40;;;;;;;2.71;100.00;101901.34;5034827;28;20024;-66
2023/03/27 06:10:08;;;;;;;2.78;1.40;;;;;;;2.57;100.00;101895.41;5040693;28;20033;-65
2023/03/27 06:12:37;;;;;;;3.67;1.58;;;;;;;2.52;100.00;101894.19;5024404;28;20033;-62
2023/03/27 06:15:08;;;;;;;2.38;1.60;;;;;;;2.45;100.00;101882.25;5029904;28;20138;-66
2023/03/27 06:17:35;;;;;;;2.97;1.60;;;;;;;2.38;100.00;101890.09;5029928;28;20088;-66
2023/03/27 06:20:10;;;;;;;2.47;1.70;;;;;;;2.35;100.00;101893.16;5031148;28;20084;-65
2023/03/27 06:22:40;;;;;;;2.35;1.60;;;;;;;2.31;100.00;101902.56;5029293;28;20048;-66
2023/03/27 06:25:05;;;;;;;2.03;1.73;;;;;;;2.30;100.00;101898.16;5035959;28;20080;-65
2023/03/27 06:27:31;;;;;;;2.47;1.52;;;;;;;2.32;100.00;101901.56;5009921;28;20465;-65
2023/03/27 06:29:56;;;;;;;3.10;1.50;;;;;;;2.34;100.00;101905.84;5030840;28;20029;-62
2023/03/27 06:32:21;;;;;;;2.53;1.40;;;;;;;2.32;100.00;101907.84;5029814;28;20464;-66
2023/03/27 06:34:48;;;;;;;2.00;1.58;;;;;;;2.34;100.00;101911.28;5047746;28;20345;-65
2023/03/27 06:37:14;;;;;;;1.63;1.40;;;;;;;2.34;100.00;101913.13;5049892;28;20079;-65
2023/03/27 06:39:39;;;;;;;2.17;1.50;;;;;;;2.33;100.00;101925.84;5043648;28;20025;-65
2023/03/27 06:42:05;;;;;;;2.38;1.77;;;;;;;2.32;100.00;101928.69;5048977;28;20051;-65
2023/03/27 06:44:30;;;;;;;3.22;2.17;;;;;;;2.45;100.00;101923.75;5048005;28;20411;-62
2023/03/27 06:46:56;;;;;;;2.58;2.17;;;;;;;2.60;100.00;101938.53;5034248;28;20121;-65
2023/03/27 06:49:21;;;;;;;3.30;2.20;;;;;;;2.70;100.00;101929.47;5020337;28;20373;-65
2023/03/27 06:51:46;;;;;;;2.53;1.90;;;;;;;2.96;100.00;101935.84;5009477;28;20045;-65
2023/03/27 06:54:13;;;;;;;2.35;1.60;;;;;;;3.09;100.00;101935.44;5007120;28;20463;-64
2023/03/27 06:56:38;;;;;;;1.70;1.60;;;;;;;3.18;100.00;101939.09;5007083;28;20041;-65
2023/03/27 06:59:04;;;;;;;2.20;1.58;;;;;;;3.23;100.00;101931.34;5012690;28;20018;-64
2023/03/27 07:01:29;;;;;;;3.65;1.88;;;;;;;3.26;100.00;101953.63;5028394;28;20037;-62
2023/03/27 07:03:55;;;;;;;3.13;1.50;;;;;;;3.37;100.00;101958.81;5020403;28;20049;-63
2023/03/27 07:06:21;;;;;;;1.95;1.50;;;;;;;3.48;100.00;101957.69;5027573;28;20041;-66
2023/03/27 07:08:46;;;;;;;1.85;1.50;;;;;;;3.57;100.00;101954.03;5027207;28;20028;-65
2023/03/27 07:11:12;;;;;;;3.60;1.70;;;;;;;3.94;100.00;101958.38;5026448;28;20033;-65
2023/03/27 07:13:39;;;;;;;2.55;1.50;;;;;;;4.12;98.67;101964.63;5025034;28;20409;-67
2023/03/27 07:16:05;;;;;;;2.28;1.70;;;;;;;4.20;99.62;101963.78;5026592;28;20025;-67
2023/03/27 07:18:31;;;;;;;2.35;1.50;;;;;;;4.49;98.30;101968.03;5026198;28;20099;-66
2023/03/27 07:20:56;;;;;;;1.95;1.50;;;;;;;4.96;97.31;101965.63;5026993;28;20048;-65
2023/03/27 07:23:21;;;;;;;2.28;1.52;;;;;;;5.27;95.82;101976.78;5025323;28;20026;-65
2023/03/27 07:25:48;;;;;;;3.50;1.60;;;;;;;5.40;92.77;101965.38;5030553;28;20487;-66
2023/03/27 07:28:15;;;;;;;2.95;1.58;;;;;;;5.30;91.41;101978.28;5032791;28;20036;-65
2023/03/27 07:30:41;;;;;;;2.17;1.60;;;;;;;5.20;92.74;101975.72;5027186;28;20037;-64
2023/03/27 07:33:08;;;;;;;1.77;1.40;;;;;;;4.92;91.07;101978.75;5018671;28;20033;-65
2023/03/27 07:35:34;;;;;;;2.17;1.60;;;;;;;4.71;93.20;101983.75;5024637;28;20476;-65
2023/03/27 07:38:00;;;;;;;2.78;1.38;;;;;;;5.44;92.02;101975.75;5025673;28;20522;-66
2023/03/27 07:40:26;;;;;;;2.65;1.30;;;;;;;6.46;88.08;101976.16;5023291;28;20021;-66
2023/03/27 07:42:52;;;;;;;2.90;1.35;;;;;;;7.10;84.13;101971.41;5018827;28;20677;-67
2023/03/27 07:45:19;;;;;;;2.08;1.35;;;;;;;7.41;80.41;101978.72;5025093;28;20029;-66
2023/03/27 07:47:45;;;;;;;1.90;1.27;;;;;;;7.95;77.26;101978.56;5021333;28;20559;-64
2023/03/27 07:50:15;;;;;;;2.65;1.38;;;;;;;8.25;75.17;101974.84;5020061;28;20032;-67
2023/03/27 07:52:43;;;;;;;4.28;1.67;;;;;;;8.17;74.83;101977.69;5017151;28;20033;-67
2023/03/27 07:55:11;;;;;;;2.72;1.38;;;;;;;8.56;71.70;101971.94;5014210;28;20080;-65
2023/03/27 07:57:38;;;;;;;2.42;1.30;;;;;;;8.81;70.89;101969.75;5017335;28;20140;-67
2023/03/27 08:00:11;;;;;;;3.22;1.40;;;;;;;8.65;70.97;101978.16;5023576;28;20029;-67
2023/03/27 08:02:40;;;;;;;1.85;1.20;;;;;;;8.16;73.15;101986.06;5018162;28;20083;-66
2023/03/27 08:05:07;;;;;;;2.05;1.10;;;;;;;7.78;73.49;101997.88;5009979;28;20022;-65
2023/03/27 08:07:34;;;;;;;3.45;1.23;;;;;;;7.48;74.16;101991.44;5032002;28;20021;-65
2023/03/27 08:10:00;;;;;;;2.25;1.20;;;;;;;7.72;77.34;101995.03;5021819;28;20113;-66
2023/03/27 08:12:25;;;;;;;1.75;1.25;;;;;;;7.93;74.50;101992.44;5021335;28;20579;-66
2023/03/27 08:14:53;;;;;;;2.60;1.30;;;;;;;7.62;75.98;101995.28;5019559;28;20150;-65
2023/03/27 08:17:18;;;;;;;2.10;1.20;;;;;;;7.47;76.66;101999.84;5019226;28;20037;-65
2023/03/27 08:19:45;;;;;;;2.58;1.10;;;;;;;7.54;76.70;102007.13;5019861;28;20081;-66
2023/03/27 08:22:10;;;;;;;3.78;1.60;;;;;;;7.49;77.49;102004.06;5029577;28;20431;-65
2023/03/27 08:24:35;;;;;;;1.83;1.33;;;;;;;7.32;77.99;102012.59;5023190;28;20018;-65
2023/03/27 08:27:00;;;;;;;2.58;1.45;;;;;;;7.15;79.16;102009.13;5023843;28;20022;-64
2023/03/27 08:29:26;;;;;;;2.10;1.10;;;;;;;7.36;79.44;102009.31;5015331;28;20489;-66
2023/03/27 08:31:51;;;;;;;3.30;1.20;;;;;;;7.73;77.63;102018.59;5021303;28;20080;-65
2023/03/27 08:34:16;;;;;;;1.83;1.20;;;;;;;7.98;76.31;102014.63;5025237;28;20120;-63
2023/03/27 08:36:42;;;;;;;1.90;1.10;;;;;;;7.94;74.68;102016.03;5012969;28;20029;-62
2023/03/27 08:39:07;;;;;;;1.85;1.10;;;;;;;8.15;74.63;102028.16;5019129;28;20018;-66
2023/03/27 08:41:40;;;;;;;2.08;1.00;;;;;;;8.47;73.61;102033.34;5016790;28;20036;-65
2023/03/27 08:44:11;;;;;;;2.92;1.17;;;;;;;8.96;72.33;102018.19;5011612;28;20108;-65
2023/03/27 08:46:44;;;;;;;3.13;1.10;;;;;;;9.08;71.80;102017.50;5013319;28;20049;-65
2023/03/27 08:49:20;;;;;;;1.45;0.93;;;;;;;9.06;71.34;102018.72;5027300;28;20127;-65
2023/03/27 08:52:04;;;;;;;2.13;0.88;;;;;;;8.69;71.21;102023.31;5020181;28;20516;-62
2023/03/27 08:54:32;;;;;;;1.52;1.00;;;;;;;8.35;72.83;102031.19;5017734;28;20026;-65
2023/03/27 08:56:58;;;;;;;2.28;1.00;;;;;;;8.63;71.43;102035.03;5016495;28;20026;-65
2023/03/27 08:59:27;;;;;;;1.45;1.08;;;;;;;8.77;71.56;102031.44;5023652;28;20021;-65
2023/03/27 09:02:02;;;;;;;1.92;1.00;;;;;;;8.50;71.41;102040.31;5023669;28;20069;-66
2023/03/27 09:04:33;;;;;;;2.58;1.38;;;;;;;8.05;72.89;102056.59;5015796;28;20492;-65
2023/03/27 09:06:59;;;;;;;1.90;0.90;;;;;;;7.93;72.30;102055.34;5023822;28;20116;-65
2023/03/27 09:10:00;;;;;;;1.93;0.90;;;;;;;7.63;74.89;102059.00;5034517;28;20443;-65
2023/03/27 09:12:44;;;;;;;1.52;1.08;;;;;;;9.51;67.68;102049.63;5017089;28;20679;-65
2023/03/27 09:15:14;;;;;;;3.22;1.40;;;;;;;11.64;60.66;102044.50;5024571;28;20048;-67
2023/03/27 09:18:06;;;;;;;2.63;0.80;;;;;;;13.51;55.94;102052.28;5017896;28;20018;-65
2023/03/27 09:20:51;;;;;;;1.10;0.50;;;;;;;13.35;54.32;102088.69;5011869;28;20056;-63
2023/03/27 09:23:22;;;;;;;1.23;0.80;;;;;;;10.68;58.99;102084.88;5016238;28;20469;-65
2023/03/27 09:25:52;;;;;;;0.50;0.50;;;;;;;8.70;66.63;102107.19;5011778;28;20546;-64
2023/03/27 09:28:25;;;;;;;0.90;0.70;;;;;;;7.30;74.92;102113.88;5017509;28;20087;-65
2023/03/27 09:30:51;;;;;;;1.52;1.00;;;;;;;6.17;78.48;102094.03;5019732;28;20100;-65
2023/03/27 09:33:18;;;;;;;0.70;0.70;;;;;;;5.75;81.56;102100.47;5024512;28;20385;-65
2023/03/27 09:35:44;;;;;;;1.00;0.82;;;;;;;5.72;83.07;102112.53;5022044;28;20548;-66
2023/03/27 09:38:33;;;;;;;0.80;0.80;;;;;;;6.48;83.66;102100.47;5020813;28;20112;-64
2023/03/27 09:41:13;;;;;;;0.70;0.70;;;;;;;8.14;77.95;102097.59;5022882;28;20469;-65
2023/03/27 09:44:06;;;;;;;0.65;0.65;;;;;;;10.31;70.50;102101.53;5023123;28;20025;-65
2023/03/27 09:46:37;;;;;;;0.93;0.80;;;;;;;13.10;62.94;102099.56;5026515;28;20061;-66
2023/03/27 09:49:16;;;;;;;1.23;0.70;;;;;;;14.82;57.85;102095.72;5024426;28;20048;-65
2023/03/27 09:51:50;;;;;;;1.15;0.70;;;;;;;16.16;51.41;102092.91;5016861;28;20088;-65
2023/03/27 09:54:17;;;;;;;1.67;0.70;;;;;;;17.18;48.27;102098.16;5023728;28;20029;-65
2023/03/27 09:56:47;;;;;;;1.63;0.52;;;;;;;17.95;45.22;102093.09;5032110;28;20029;-66
2023/03/27 09:59:22;;;;;;;1.42;0.60;;;;;;;18.53;43.01;102094.66;5029803;28;20029;-65
2023/03/27 10:01:51;;;;;;;0.95;0.50;;;;;;;18.36;42.77;102104.94;5007786;28;20040;-65
2023/03/27 10:04:22;;;;;;;1.00;0.70;;;;;;;18.21;42.16;102110.25;5016967;28;20029;-65
2023/03/27 10:07:00;;;;;;;1.75;0.75;;;;;;;17.98;40.49;102109.25;5018244;28;20033;-64
2023/03/27 10:09:33;;;;;;;1.15;0.60;;;;;;;18.38;40.68;102102.75;5030959;28;20125;-63
2023/03/27 10:12:04;;;;;;;1.55;0.63;;;;;;;19.05;41.23;102104.63;5026917;28;20030;-65
2023/03/27 10:14:33;;;;;;;2.25;0.88;;;;;;;19.96;38.55;102100.19;5027582;28;20091;-65
2023/03/27 10:17:00;;;;;;;1.33;0.70;;;;;;;20.40;35.87;102099.22;5026612;28;20496;-65
2023/03/27 10:19:34;;;;;;;0.60;0.60;;;;;;;20.59;37.54;102110.88;5025878;28;20388;-62
2023/03/27 10:22:07;;;;;;;1.75;0.75;;;;;;;18.87;36.13;102108.56;5032851;28;20525;-65
2023/03/27 10:24:35;;;;;;;1.35;0.65;;;;;;;16.09;41.32;102124.34;5019323;28;20108;-63
2023/03/27 10:27:03;;;;;;;;;;;;;;;14.96;49.10;102124.09;5046290;28;20053;-65
2023/03/27 10:29:36;;;;;;;;;;;;;;;13.44;55.86;102117.72;5047617;28;19965;-64
2023/03/27 10:32:05;;;;;;;;;;;;;;;12.61;59.55;102120.22;5031542;28;19916;-66
2023/03/27 10:34:31;;;;;;;;;;;;;;;14.67;52.70;102109.06;5027611;28;20380;-64
2023/03/27 10:36:56;;;;;;;;;;;;;;;16.67;49.62;102108.91;5027837;28;19913;-64
2023/03/27 10:39:25;;;;;;;;;;;;;;;18.03;45.02;102112.13;5027737;28;19922;-65
2023/03/27 10:41:51;;;;;;;;;;;;;;;18.66;44.80;102104.59;5026978;28;19959;-65
2023/03/27 10:44:17;;;;;;;;;;;;;;;18.47;42.12;102125.44;5027379;28;20371;-65
2023/03/27 10:46:43;;;;;;;;;;;;;;;15.83;46.80;102152.47;5026557;28;19919;-62
2023/03/27 10:49:11;;;;;;;;;;;;;;;13.26;52.21;102167.25;4991636;28;1051058;-65
2023/03/27 10:51:46;;;;;;;;;;;;;;;11.49;59.79;102175.88;5027179;28;19960;-65
2023/03/27 10:54:15;;;;;;;;;;;;;;;10.52;63.91;102179.44;5029585;28;19916;-65
2023/03/27 10:56:41;;;;;;;;;;;;;;;9.91;64.68;102193.56;5025734;28;19917;-66
2023/03/27 10:59:10;;;;;;;;;;;;;;;9.19;68.16;102194.34;5028086;28;19913;-65
2023/03/27 11:01:39;;;;;;;;;;;;;;;8.27;72.42;102183.53;5027455;28;19921;-66
2023/03/27 11:04:12;;;;;;;;;;;;;;;7.62;76.83;102185.81;5026457;28;19953;-65
2023/03/27 11:06:40;;;;;;;;;;;;;;;7.37;77.58;102198.75;5027542;28;20303;-65
2023/03/27 11:09:14;;;;;;;;;;;;;;;7.53;77.04;102198.66;5027979;28;19913;-65
2023/03/27 11:11:44;;;;;;;;;;;;;;;8.65;74.78;102191.78;5026587;28;19960;-65
2023/03/27 11:14:18;;;;;;;;;;;;;;;11.88;63.82;102176.06;5027095;28;19917;-65
2023/03/27 11:16:46;;;;;;;;;;;;;;;14.82;58.25;102166.78;5026898;28;19917;-65
2023/03/27 11:19:14;;;;;;;;;;;;;;;16.65;48.20;102169.34;5026383;28;19917;-64
2023/03/27 11:21:48;;;;;;;;;;;;;;;17.99;48.23;102171.25;5025872;28;19913;-62
2023/03/27 11:24:21;;;;;;;;;;;;;;;19.30;46.12;102171.00;5023619;28;19967;-63
2023/03/27 11:26:59;;;;;;;;;;;;;;;20.33;41.79;102169.22;5026995;28;20270;-65
2023/03/27 11:29:27;;;;;;;;;;;;;;;20.44;42.65;102164.56;5027220;28;19924;-64
2023/03/27 11:31:54;;;;;;;;;;;;;;;20.94;41.59;102171.72;5026527;28;19913;-64
2023/03/27 11:34:24;;;;;;;;;;;;;;;21.41;39.17;102162.53;5027609;28;19939;-64
2023/03/27 11:36:54;;;;;;;;;;;;;;;21.39;39.40;102174.00;5027023;28;19935;-62
2023/03/27 11:39:19;;;;;;;;;;;;;;;21.07;39.76;102170.41;5013073;28;19980;-64
2023/03/27 11:42:05;;;;;;;;;;;;;;;21.00;39.07;102165.06;5017585;28;19960;-63
2023/03/27 11:44:30;;;;;;;;;;;;;;;20.61;38.84;102165.31;5011384;28;19917;-63
2023/03/27 11:46:56;;;;;;;;;;;;;;;19.47;42.35;102159.81;5016817;28;20287;-65
2023/03/27 11:49:24;;;;;;;;;;;;;;;17.87;44.56;102158.25;5018729;28;19964;-64